Time;durP1;ratioP1;P1;durP2;ratioP2;P2;SDS_P1;SDS_P2;PMS_P1;PMS_P2;Temp;Humidity;BMP_temperature;BMP_pressure;BME280_temperature;BME280_humidity;BME280_pressure;Samples;Min_cycle;Max_cycle;Signal;HPM_P1;HPM_P2
2021/12/01 00:00:17;;;;;;;132.43;119.53;;;10.10;99.90;;;;;;4998126;28;20062;-81
2021/12/01 00:02:44;;;;;;;134.32;121.13;;;10.10;99.90;;;;;;5015707;28;20102;-81
2021/12/01 00:05:12;;;;;;;135.20;122.32;;;10.10;99.90;;;;;;4997328;28;20743;-81
2021/12/01 00:07:39;;;;;;;131.70;118.93;;;10.20;99.90;;;;;;5030438;28;20050;-81
2021/12/01 00:10:08;;;;;;;133.70;121.00;;;10.20;99.90;;;;;;5020382;28;20133;-81
2021/12/01 00:12:37;;;;;;;130.98;118.38;;;10.30;99.90;;;;;;5030352;28;20105;-81
2021/12/01 00:15:05;;;;;;;132.07;119.05;;;10.30;99.90;;;;;;5014069;28;20141;-81
2021/12/01 00:17:33;;;;;;;129.32;116.80;;;10.30;99.90;;;;;;5011093;28;20137;-82
2021/12/01 00:20:00;;;;;;;127.47;115.18;;;10.30;99.90;;;;;;4993293;28;20066;-81
2021/12/01 00:22:27;;;;;;;127.25;115.18;;;10.30;99.90;;;;;;5007792;28;20583;-81
2021/12/01 00:24:55;;;;;;;129.38;117.13;;;10.30;99.90;;;;;;5014488;28;20078;-81
2021/12/01 00:27:22;;;;;;;130.35;117.88;;;10.30;99.90;;;;;;5009114;28;20050;-81
2021/12/01 00:29:50;;;;;;;130.75;118.25;;;10.30;99.90;;;;;;4992417;28;20050;-81
2021/12/01 00:32:18;;;;;;;128.77;116.43;;;10.30;99.90;;;;;;5025558;28;20058;-81
2021/12/01 00:34:45;;;;;;;130.25;117.53;;;10.30;99.90;;;;;;5003962;28;20165;-81
2021/12/01 00:37:12;;;;;;;129.27;116.72;;;10.40;99.90;;;;;;5007417;28;20077;-81
2021/12/01 00:39:40;;;;;;;130.32;117.82;;;10.40;99.90;;;;;;5015137;28;20111;-81
2021/12/01 00:42:07;;;;;;;129.18;116.47;;;10.40;99.90;;;;;;5015273;28;20194;-82
2021/12/01 00:44:35;;;;;;;128.38;116.00;;;10.40;99.90;;;;;;5015186;28;20590;-81
2021/12/01 00:47:06;;;;;;;130.88;118.28;;;10.40;99.90;;;;;;5015107;28;20128;-81
2021/12/01 00:49:35;;;;;;;128.63;116.30;;;10.50;99.90;;;;;;5014693;28;20050;-81
2021/12/01 00:52:03;;;;;;;131.82;118.72;;;10.40;99.90;;;;;;5015196;28;20058;-81
2021/12/01 00:54:30;;;;;;;130.23;117.72;;;10.40;99.90;;;;;;5015109;28;20130;-81
2021/12/01 00:56:58;;;;;;;128.02;115.72;;;10.40;99.90;;;;;;4998658;28;20544;-81
2021/12/01 00:59:25;;;;;;;132.32;119.30;;;10.50;99.90;;;;;;5008693;28;20564;-81
2021/12/01 01:01:52;;;;;;;128.00;115.65;;;10.50;99.90;;;;;;4992066;28;20498;-81
2021/12/01 01:04:21;;;;;;;129.10;116.68;;;10.50;99.90;;;;;;4995367;28;20051;-81
2021/12/01 01:06:48;;;;;;;130.25;117.30;;;10.60;99.90;;;;;;5027855;28;20141;-81
2021/12/01 01:09:16;;;;;;;126.85;114.43;;;10.60;99.90;;;;;;5028057;28;20505;-81
2021/12/01 01:17:18;;;;;;;128.70;116.05;;;10.60;99.90;;;;;;5029521;28;20054;-82
2021/12/01 01:19:46;;;;;;;128.40;115.75;;;10.60;99.90;;;;;;4980428;28;20050;-81
2021/12/01 01:22:13;;;;;;;127.80;115.18;;;10.70;99.90;;;;;;4980521;28;20097;-82
2021/12/01 01:24:41;;;;;;;127.20;114.95;;;10.60;99.90;;;;;;4996597;28;20789;-81
2021/12/01 01:27:08;;;;;;;127.57;114.85;;;10.60;99.90;;;;;;4996476;28;20058;-81
2021/12/01 01:29:36;;;;;;;123.80;111.72;;;10.60;99.90;;;;;;4980179;28;20169;-81
2021/12/01 01:32:05;;;;;;;122.78;110.82;;;10.60;99.90;;;;;;5035979;28;20093;-81
2021/12/01 01:34:32;;;;;;;122.53;110.78;;;10.60;99.90;;;;;;5016160;28;20607;-82
2021/12/01 01:37:01;;;;;;;121.43;110.07;;;10.60;99.90;;;;;;5015888;28;20129;-81
2021/12/01 01:39:28;;;;;;;121.90;110.50;;;10.60;99.90;;;;;;5008250;28;20061;-81
2021/12/01 01:41:55;;;;;;;119.22;107.82;;;10.50;99.90;;;;;;5009212;28;20082;-80
2021/12/01 01:44:22;;;;;;;120.40;108.80;;;10.60;99.90;;;;;;5009328;28;20055;-81
2021/12/01 01:46:49;;;;;;;119.10;107.43;;;10.60;99.90;;;;;;5008910;28;20146;-81
2021/12/01 01:49:18;;;;;;;120.55;109.10;;;10.50;99.90;;;;;;4991501;28;20103;-81
2021/12/01 01:51:46;;;;;;;119.18;107.90;;;10.60;99.90;;;;;;4992868;28;20062;-81
2021/12/01 01:54:16;;;;;;;119.57;108.50;;;10.60;99.90;;;;;;5009227;28;20058;-81
2021/12/01 01:56:44;;;;;;;120.53;109.15;;;10.60;99.90;;;;;;5008907;28;20548;-81
2021/12/01 01:59:11;;;;;;;119.38;108.30;;;10.60;99.90;;;;;;4993172;28;20192;-81
2021/12/01 02:01:53;;;;;;;119.72;108.47;;;10.60;99.90;;;;;;4994109;28;20051;-81
2021/12/01 02:04:22;;;;;;;118.80;107.55;;;10.60;99.90;;;;;;4996493;28;20055;-81
2021/12/01 02:06:50;;;;;;;117.43;106.65;;;10.70;99.90;;;;;;4997519;28;20133;-80
2021/12/01 02:09:21;;;;;;;118.82;107.78;;;10.60;99.90;;;;;;4999575;28;20082;-81
2021/12/01 02:11:49;;;;;;;118.95;108.05;;;10.60;99.90;;;;;;4999384;28;20121;-81
2021/12/01 02:14:16;;;;;;;116.70;105.82;;;10.60;99.90;;;;;;4999167;28;20073;-81
2021/12/01 02:16:45;;;;;;;118.25;107.25;;;10.60;99.90;;;;;;4999184;28;20149;-81
2021/12/01 02:19:12;;;;;;;115.72;105.07;;;10.70;99.90;;;;;;5015706;28;20109;-79
2021/12/01 02:21:41;;;;;;;116.35;105.50;;;10.70;99.90;;;;;;4999264;28;20046;-81
2021/12/01 02:24:10;;;;;;;115.20;104.60;;;10.70;99.90;;;;;;5015718;28;20117;-81
2021/12/01 02:26:40;;;;;;;114.53;103.90;;;10.70;99.90;;;;;;5015598;28;20528;-81
2021/12/01 02:29:10;;;;;;;114.03;103.45;;;10.80;99.90;;;;;;5016573;28;20078;-80
2021/12/01 02:31:39;;;;;;;114.80;104.20;;;10.70;99.90;;;;;;4999146;28;20879;-81
2021/12/01 02:34:08;;;;;;;114.13;103.40;;;10.70;99.90;;;;;;4998752;28;20568;-81
2021/12/01 02:36:36;;;;;;;113.05;102.55;;;10.80;99.90;;;;;;5015214;28;20080;-81
2021/12/01 02:39:08;;;;;;;113.97;103.47;;;10.70;99.90;;;;;;5016813;28;20593;-81
2021/12/01 02:41:36;;;;;;;113.57;102.97;;;10.80;99.90;;;;;;5015682;28;20046;-81
2021/12/01 02:44:06;;;;;;;115.60;104.90;;;10.80;99.90;;;;;;4998942;28;20051;-80
2021/12/01 02:46:35;;;;;;;113.85;103.38;;;10.80;99.90;;;;;;5015177;28;20056;-81
2021/12/01 02:49:03;;;;;;;114.25;103.72;;;10.80;99.90;;;;;;5015136;28;20097;-81
2021/12/01 02:51:32;;;;;;;113.78;103.28;;;10.80;99.90;;;;;;5015297;28;20117;-81
2021/12/01 02:54:00;;;;;;;114.18;103.68;;;10.90;99.90;;;;;;4998791;28;20054;-81
2021/12/01 02:56:33;;;;;;;115.07;104.47;;;10.80;99.90;;;;;;4998455;28;20058;-81
2021/12/01 02:59:02;;;;;;;113.68;103.07;;;10.80;99.90;;;;;;5015025;28;20413;-81
2021/12/01 03:01:29;;;;;;;114.10;103.53;;;10.90;99.90;;;;;;4998726;28;20100;-81
2021/12/01 03:03:57;;;;;;;113.35;102.95;;;10.90;99.90;;;;;;4998689;28;20046;-81
2021/12/01 03:06:26;;;;;;;112.57;102.18;;;10.90;99.90;;;;;;5014900;28;20054;-81
2021/12/01 03:08:54;;;;;;;112.35;101.95;;;10.90;99.90;;;;;;5015256;28;20064;-81
2021/12/01 03:11:21;;;;;;;111.88;101.57;;;10.90;99.90;;;;;;5016168;28;20656;-80
2021/12/01 03:13:49;;;;;;;111.28;100.82;;;10.90;99.90;;;;;;4997777;28;20046;-81
2021/12/01 03:16:16;;;;;;;111.90;101.40;;;10.90;99.90;;;;;;5007280;28;20503;-81
2021/12/01 03:18:44;;;;;;;111.93;101.43;;;10.90;99.90;;;;;;5018024;28;20108;-81
2021/12/01 03:21:12;;;;;;;111.82;101.28;;;10.90;99.90;;;;;;5017838;28;20077;-81
2021/12/01 03:23:40;;;;;;;110.43;99.88;;;10.90;99.90;;;;;;5016792;28;20112;-81
2021/12/01 03:26:08;;;;;;;109.95;99.45;;;10.90;99.90;;;;;;4998141;28;20141;-80
2021/12/01 03:28:36;;;;;;;109.28;98.57;;;10.90;99.90;;;;;;5015168;28;20059;-81
2021/12/01 03:31:04;;;;;;;111.00;100.25;;;10.90;99.90;;;;;;5014939;28;20079;-80
2021/12/01 03:33:31;;;;;;;110.70;100.05;;;10.90;99.90;;;;;;4997928;28;20042;-81
2021/12/01 03:35:58;;;;;;;109.85;99.28;;;10.90;99.80;;;;;;5013994;28;20551;-80
2021/12/01 03:38:27;;;;;;;109.50;98.93;;;10.90;99.90;;;;;;5014590;28;20054;-81
2021/12/01 03:40:56;;;;;;;109.55;99.00;;;10.90;99.90;;;;;;5014700;28;20050;-81
2021/12/01 03:43:23;;;;;;;110.25;99.63;;;10.90;99.80;;;;;;5011251;28;20054;-81
2021/12/01 03:45:50;;;;;;;109.50;98.80;;;10.90;99.80;;;;;;5014139;28;20058;-81
2021/12/01 03:48:20;;;;;;;109.55;99.05;;;11.00;99.60;;;;;;5014380;28;20050;-80
2021/12/01 03:50:49;;;;;;;110.32;99.70;;;10.90;99.70;;;;;;5025034;28;20620;-81
2021/12/01 03:53:17;;;;;;;110.15;99.45;;;10.90;99.70;;;;;;5011065;28;20066;-81
2021/12/01 03:55:44;;;;;;;110.18;99.80;;;10.90;99.80;;;;;;5027266;28;20133;-81
2021/12/01 03:58:11;;;;;;;108.97;98.80;;;10.90;99.60;;;;;;4997774;28;20062;-81
2021/12/01 04:00:39;;;;;;;111.15;100.70;;;10.90;99.60;;;;;;4998057;28;20481;-81
2021/12/01 04:03:06;;;;;;;109.18;99.07;;;10.90;99.60;;;;;;5030451;28;20074;-81
2021/12/01 04:05:35;;;;;;;110.15;99.95;;;10.80;99.60;;;;;;4997389;28;20097;-80
2021/12/01 04:08:05;;;;;;;109.38;99.05;;;10.80;99.70;;;;;;4997851;28;20050;-80
2021/12/01 04:10:33;;;;;;;110.07;99.90;;;10.90;99.60;;;;;;5030769;28;20053;-81
2021/12/01 04:13:00;;;;;;;109.47;99.18;;;10.90;99.70;;;;;;4997617;28;20066;-80
2021/12/01 04:15:27;;;;;;;109.00;98.80;;;10.90;99.70;;;;;;4997280;28;20568;-81
2021/12/01 04:17:54;;;;;;;108.68;98.57;;;10.90;99.70;;;;;;5030258;28;20050;-80
2021/12/01 04:20:39;;;;;;;109.85;99.55;;;10.80;99.80;;;;;;4997843;28;20065;-81
2021/12/01 04:23:06;;;;;;;109.22;98.97;;;10.80;99.80;;;;;;4998791;28;20101;-80
2021/12/01 04:25:34;;;;;;;109.25;99.20;;;10.80;99.70;;;;;;5026555;28;20058;-80
2021/12/01 04:28:01;;;;;;;110.00;99.80;;;10.80;99.70;;;;;;5030429;28;20090;-81
2021/12/01 04:30:28;;;;;;;108.80;98.50;;;10.80;99.80;;;;;;5030244;28;20523;-81
2021/12/01 04:32:57;;;;;;;110.75;100.50;;;10.80;99.70;;;;;;4997417;28;20050;-81
2021/12/01 04:35:26;;;;;;;110.22;99.93;;;10.80;99.80;;;;;;5014575;28;20065;-81
2021/12/01 04:37:55;;;;;;;110.05;99.75;;;10.70;99.70;;;;;;4997191;28;20054;-80
2021/12/01 04:40:23;;;;;;;108.22;98.20;;;10.80;99.70;;;;;;5030096;28;20055;-80
2021/12/01 04:42:50;;;;;;;109.38;99.28;;;10.80;99.60;;;;;;5030326;28;20111;-81
2021/12/01 04:45:19;;;;;;;110.80;100.60;;;10.80;99.50;;;;;;5029800;28;20093;-81
2021/12/01 04:47:48;;;;;;;110.00;99.80;;;10.80;99.60;;;;;;4997114;28;20081;-81
2021/12/01 04:50:16;;;;;;;110.45;100.25;;;10.80;99.50;;;;;;4997079;28;20058;-80
2021/12/01 04:52:43;;;;;;;110.03;99.82;;;10.80;99.60;;;;;;5030008;28;20584;-81
2021/12/01 04:55:13;;;;;;;109.45;99.22;;;10.70;99.50;;;;;;4996560;28;20111;-81
2021/12/01 04:57:41;;;;;;;108.00;98.10;;;10.80;99.60;;;;;;5029995;28;20054;-81
2021/12/01 05:00:11;;;;;;;108.00;98.00;;;10.80;99.60;;;;;;5005532;28;20054;-80
2021/12/01 05:02:38;;;;;;;108.07;98.18;;;10.70;99.60;;;;;;5016417;28;20050;-81
2021/12/01 05:05:06;;;;;;;111.13;101.03;;;10.70;99.80;;;;;;5016369;28;20045;-81
2021/12/01 05:07:33;;;;;;;107.00;97.10;;;10.70;99.70;;;;;;5034499;28;20054;-80
2021/12/01 05:10:00;;;;;;;108.03;97.95;;;10.60;99.70;;;;;;5016517;28;20108;-81
2021/12/01 05:12:29;;;;;;;108.50;98.60;;;10.60;99.70;;;;;;5016139;28;20050;-81
2021/12/01 05:14:56;;;;;;;109.10;98.93;;;10.60;99.70;;;;;;5015602;28;20150;-80
2021/12/01 05:17:23;;;;;;;107.93;97.95;;;10.60;99.60;;;;;;5016259;28;20050;-80
2021/12/01 05:19:50;;;;;;;107.85;97.93;;;10.60;99.50;;;;;;5016307;28;20105;-81
2021/12/01 05:22:18;;;;;;;109.55;99.45;;;10.60;99.60;;;;;;5016145;28;20108;-80
2021/12/01 05:24:45;;;;;;;110.00;99.90;;;10.60;99.70;;;;;;5034021;28;20510;-80
2021/12/01 05:27:12;;;;;;;110.18;100.07;;;10.60;99.80;;;;;;5016195;28;20108;-80
2021/12/01 05:29:40;;;;;;;109.22;99.13;;;10.50;99.70;;;;;;5016169;28;20085;-80
2021/12/01 05:32:09;;;;;;;112.70;102.50;;;10.50;99.60;;;;;;5016249;28;20108;-80
2021/12/01 05:34:36;;;;;;;109.78;99.68;;;10.50;99.50;;;;;;4999299;28;20058;-80
2021/12/01 05:37:03;;;;;;;110.32;100.18;;;10.50;99.40;;;;;;5012672;28;20085;-80
2021/12/01 05:39:32;;;;;;;114.57;104.28;;;10.50;99.50;;;;;;4996258;28;20556;-80
2021/12/01 05:42:00;;;;;;;109.97;99.78;;;10.50;99.40;;;;;;4996319;28;20051;-80
2021/12/01 05:44:29;;;;;;;112.57;102.20;;;10.50;99.30;;;;;;4996458;28;20137;-80
2021/12/01 05:46:58;;;;;;;109.47;99.38;;;10.50;99.40;;;;;;5012411;28;20054;-81
2021/12/01 05:49:25;;;;;;;111.55;101.35;;;10.40;99.30;;;;;;4996293;28;20062;-81
2021/12/01 05:51:53;;;;;;;113.00;102.80;;;10.40;99.40;;;;;;4984020;28;20066;-81
2021/12/01 05:54:20;;;;;;;113.28;103.07;;;10.40;99.30;;;;;;5012467;28;20066;-81
2021/12/01 05:56:47;;;;;;;110.32;100.13;;;10.50;99.20;;;;;;5012463;28;20125;-80
2021/12/01 05:59:15;;;;;;;111.65;101.40;;;10.40;99.20;;;;;;5012713;28;20054;-80
2021/12/01 06:01:42;;;;;;;113.53;103.05;;;10.40;99.30;;;;;;5013076;28;20078;-81
2021/12/01 06:04:11;;;;;;;111.15;100.95;;;10.40;99.40;;;;;;4996324;28;20137;-80
2021/12/01 06:06:38;;;;;;;112.38;101.97;;;10.40;99.30;;;;;;4995604;28;20061;-80
2021/12/01 06:09:06;;;;;;;111.28;100.97;;;10.40;99.30;;;;;;4994183;28;20089;-80
2021/12/01 06:11:33;;;;;;;113.00;102.80;;;10.30;99.30;;;;;;4995933;28;20536;-80
2021/12/01 06:14:01;;;;;;;110.68;100.40;;;10.20;99.40;;;;;;4995333;28;20050;-80
2021/12/01 06:16:28;;;;;;;110.85;100.75;;;10.20;99.40;;;;;;5011953;28;20132;-80
2021/12/01 06:18:55;;;;;;;112.28;102.07;;;10.20;99.30;;;;;;5011880;28;20488;-81
2021/12/01 06:21:24;;;;;;;110.47;100.25;;;10.20;99.30;;;;;;4995296;28;20050;-80
2021/12/01 06:23:51;;;;;;;110.70;100.57;;;10.10;99.40;;;;;;5011895;28;20575;-80
2021/12/01 06:26:18;;;;;;;112.78;102.57;;;10.20;99.30;;;;;;5011704;28;20058;-80
2021/12/01 06:28:45;;;;;;;108.47;98.40;;;10.10;99.30;;;;;;4995774;28;20138;-81
2021/12/01 06:31:12;;;;;;;112.60;102.50;;;10.10;99.30;;;;;;5011994;28;20090;-81
2021/12/01 06:33:39;;;;;;;110.97;100.78;;;10.10;99.10;;;;;;5012308;28;20097;-81
2021/12/01 06:36:06;;;;;;;108.15;98.05;;;10.10;99.10;;;;;;4995477;28;20054;-80
2021/12/01 06:38:35;;;;;;;110.80;100.50;;;10.10;99.40;;;;;;4995710;28;20136;-80
2021/12/01 06:41:02;;;;;;;110.93;100.72;;;10.10;99.10;;;;;;5026413;28;20050;-80
2021/12/01 06:43:30;;;;;;;111.70;101.40;;;10.10;99.10;;;;;;5006191;28;20105;-80
2021/12/01 06:45:57;;;;;;;114.15;103.85;;;10.00;99.40;;;;;;5014216;28;20057;-82
2021/12/01 06:48:24;;;;;;;112.05;101.85;;;10.00;99.30;;;;;;5007538;28;20071;-82
2021/12/01 06:50:51;;;;;;;113.60;103.30;;;10.00;99.30;;;;;;5005298;28;20074;-83
2021/12/01 06:53:18;;;;;;;109.75;99.60;;;10.00;99.30;;;;;;5030651;28;20054;-82
2021/12/01 06:55:47;;;;;;;108.57;98.53;;;10.00;99.20;;;;;;5006289;28;20511;-82
2021/12/01 06:58:14;;;;;;;111.13;100.80;;;9.90;99.30;;;;;;5003648;28;20062;-82
2021/12/01 07:00:41;;;;;;;113.32;103.10;;;9.90;99.30;;;;;;4998060;28;20129;-81
2021/12/01 07:03:08;;;;;;;111.57;101.38;;;10.00;99.30;;;;;;4998527;28;20120;-82
2021/12/01 07:05:36;;;;;;;112.88;102.57;;;9.90;99.30;;;;;;4997271;28;20077;-82
2021/12/01 07:08:03;;;;;;;110.65;100.45;;;9.90;99.40;;;;;;5014469;28;20086;-80
2021/12/01 07:10:31;;;;;;;112.05;101.85;;;9.90;99.40;;;;;;4998079;28;20050;-81
2021/12/01 07:12:59;;;;;;;114.43;104.05;;;9.90;99.50;;;;;;5015359;28;20120;-86
2021/12/01 07:15:27;;;;;;;109.95;99.68;;;9.90;99.60;;;;;;5005344;28;20069;-85
2021/12/01 07:17:54;;;;;;;115.40;105.03;;;9.80;99.50;;;;;;5001095;28;20149;-81
2021/12/01 07:20:21;;;;;;;115.18;104.78;;;9.80;99.50;;;;;;5010733;28;20463;-83
2021/12/01 07:22:49;;;;;;;111.97;101.78;;;9.80;99.50;;;;;;5017351;28;20089;-85
2021/12/01 07:25:16;;;;;;;112.78;102.47;;;9.80;99.50;;;;;;5014564;28;20046;-83
2021/12/01 07:27:43;;;;;;;113.35;103.03;;;9.90;99.40;;;;;;4998027;28;20586;-82
2021/12/01 07:30:13;;;;;;;113.50;103.18;;;9.80;99.50;;;;;;4995775;28;20129;-83
2021/12/01 07:32:40;;;;;;;112.63;102.40;;;9.80;99.50;;;;;;4992537;28;20134;-83
2021/12/01 07:35:08;;;;;;;113.55;103.28;;;9.80;99.50;;;;;;4997504;28;20050;-84
2021/12/01 07:37:35;;;;;;;114.97;104.57;;;9.80;99.50;;;;;;4997750;28;20113;-78
2021/12/01 07:40:02;;;;;;;115.13;104.75;;;9.80;99.40;;;;;;4993695;28;20042;-79
2021/12/01 07:42:30;;;;;;;114.55;104.20;;;9.90;99.50;;;;;;4993899;28;20137;-79
2021/12/01 07:44:57;;;;;;;114.47;104.13;;;9.90;99.50;;;;;;4995414;28;20102;-80
2021/12/01 07:47:25;;;;;;;114.07;103.78;;;9.90;99.50;;;;;;5026843;28;20050;-80
2021/12/01 07:49:52;;;;;;;113.20;103.00;;;9.80;99.50;;;;;;5000222;28;20461;-80
2021/12/01 07:52:19;;;;;;;115.38;104.88;;;9.80;99.60;;;;;;5076800;23;20095;-80
2021/12/01 07:54:47;;;;;;;115.93;105.43;;;9.90;99.50;;;;;;5054921;28;20055;-79
2021/12/01 07:57:15;;;;;;;115.07;104.68;;;9.90;99.50;;;;;;5056035;28;20132;-78
2021/12/01 07:59:43;;;;;;;115.57;104.97;;;9.80;99.50;;;;;;5073109;28;20053;-79
2021/12/01 08:02:10;;;;;;;114.10;103.63;;;9.90;99.40;;;;;;5073053;28;20128;-83
2021/12/01 08:04:39;;;;;;;114.43;103.72;;;9.90;99.50;;;;;;5067955;28;20053;-84
2021/12/01 08:07:06;;;;;;;114.13;103.72;;;9.90;99.30;;;;;;5052327;28;20049;-82
2021/12/01 08:09:33;;;;;;;114.75;104.35;;;9.90;99.30;;;;;;5053551;28;20046;-81
2021/12/01 08:12:01;;;;;;;115.25;104.80;;;9.90;99.30;;;;;;5053329;28;20093;-81
2021/12/01 08:14:28;;;;;;;115.25;104.65;;;10.00;99.20;;;;;;5057810;28;20057;-82
2021/12/01 08:16:55;;;;;;;114.50;104.03;;;10.00;99.00;;;;;;5057021;28;21003;-81
2021/12/01 08:19:22;;;;;;;115.75;105.25;;;10.00;99.10;;;;;;5073825;28;20119;-82
2021/12/01 08:21:51;;;;;;;112.45;102.05;;;10.10;99.00;;;;;;5073457;28;20060;-82
2021/12/01 08:24:19;;;;;;;113.80;103.07;;;10.10;98.90;;;;;;5073064;28;20048;-81
2021/12/01 08:26:46;;;;;;;113.10;102.70;;;10.10;98.90;;;;;;5073073;28;20059;-78
2021/12/01 08:29:14;;;;;;;116.43;105.60;;;10.10;99.00;;;;;;5063354;28;20054;-81
2021/12/01 08:31:42;;;;;;;115.63;104.93;;;10.20;98.90;;;;;;5051830;28;20569;-82
2021/12/01 08:34:10;;;;;;;114.78;104.35;;;10.20;98.80;;;;;;5052220;28;20088;-81
2021/12/01 08:36:38;;;;;;;115.95;105.35;;;10.20;98.80;;;;;;5062776;28;20060;-82
2021/12/01 08:39:07;;;;;;;113.68;103.38;;;10.20;98.80;;;;;;5065904;28;20188;-80
2021/12/01 08:41:34;;;;;;;115.57;104.70;;;10.20;98.90;;;;;;5036194;28;20170;-80
2021/12/01 08:44:01;;;;;;;114.35;103.85;;;10.20;98.90;;;;;;5052625;28;20100;-79
2021/12/01 08:46:29;;;;;;;113.75;103.35;;;10.20;98.90;;;;;;5053740;28;20099;-80
2021/12/01 08:48:58;;;;;;;113.38;102.97;;;10.20;99.00;;;;;;5072475;28;20049;-80
2021/12/01 08:51:25;;;;;;;112.63;101.75;;;10.10;98.80;;;;;;5072804;28;20052;-80
2021/12/01 08:53:53;;;;;;;111.10;100.65;;;10.10;98.70;;;;;;5072338;28;20136;-80
2021/12/01 08:56:21;;;;;;;115.90;105.40;;;10.20;98.50;;;;;;5072588;28;20049;-81
2021/12/01 08:58:48;;;;;;;116.28;105.43;;;10.20;98.40;;;;;;5069054;28;20545;-84
2021/12/01 09:01:16;;;;;;;113.63;102.75;;;10.10;98.50;;;;;;5060963;28;20081;-80
2021/12/01 09:03:43;;;;;;;114.90;104.07;;;10.20;98.30;;;;;;5063289;28;20563;-80
2021/12/01 09:06:10;;;;;;;114.15;103.07;;;10.10;98.40;;;;;;5062942;28;20152;-81
2021/12/01 09:08:37;;;;;;;112.97;101.88;;;10.10;98.30;;;;;;5065782;28;20057;-81
2021/12/01 09:11:05;;;;;;;114.97;103.82;;;10.10;98.10;;;;;;5071502;28;20081;-81
2021/12/01 09:13:36;;;;;;;114.93;103.72;;;10.10;98.10;;;;;;5063737;28;20076;-86
2021/12/01 09:16:04;;;;;;;113.53;102.75;;;10.00;98.00;;;;;;5063176;28;20053;-86
2021/12/01 09:18:33;;;;;;;113.93;103.22;;;10.10;97.70;;;;;;5045467;28;20077;-87
2021/12/01 09:21:02;;;;;;;113.88;102.85;;;10.00;97.80;;;;;;5069573;28;20107;-79
2021/12/01 09:23:29;;;;;;;114.18;102.93;;;10.00;97.50;;;;;;5059437;28;20124;-80
2021/12/01 09:25:57;;;;;;;113.03;102.10;;;10.00;97.70;;;;;;5058198;28;20077;-78
2021/12/01 09:28:25;;;;;;;112.10;101.10;;;10.00;97.40;;;;;;5072551;28;20102;-80
2021/12/01 09:30:56;;;;;;;114.50;103.32;;;10.00;97.40;;;;;;5071900;28;20789;-80
2021/12/01 09:33:23;;;;;;;112.70;101.47;;;10.00;97.50;;;;;;5074274;28;20083;-81
2021/12/01 09:35:52;;;;;;;116.07;104.65;;;9.90;97.50;;;;;;5069459;28;20171;-77
2021/12/01 09:38:19;;;;;;;115.13;104.20;;;10.00;97.10;;;;;;5053136;28;20598;-79
2021/12/01 09:40:50;;;;;;;113.88;102.88;;;9.90;96.90;;;;;;5051461;28;20147;-77
2021/12/01 09:43:20;;;;;;;115.22;103.95;;;9.90;97.00;;;;;;5072609;28;20049;-77
2021/12/01 09:45:47;;;;;;;115.18;104.15;;;9.90;97.10;;;;;;5038619;28;20056;-82
2021/12/01 09:48:16;;;;;;;112.82;102.13;;;9.80;97.20;;;;;;4969787;28;27687;-78
2021/12/01 09:50:43;;;;;;;112.40;101.70;;;9.80;97.20;;;;;;5072284;28;20132;-77
2021/12/01 09:53:11;;;;;;;115.18;103.93;;;9.80;97.30;;;;;;5062753;28;20054;-81
2021/12/01 09:55:40;;;;;;;115.60;104.22;;;9.80;97.50;;;;;;5075799;28;20081;-78
2021/12/01 09:58:11;;;;;;;112.85;102.07;;;9.80;97.40;;;;;;5059759;28;20072;-79
2021/12/01 10:00:41;;;;;;;113.30;102.30;;;9.80;97.30;;;;;;5051721;28;20154;-80
2021/12/01 10:03:09;;;;;;;112.85;101.80;;;9.80;97.60;;;;;;5051567;28;20136;-81
2021/12/01 10:06:02;;;;;;;113.25;102.07;;;9.80;97.50;;;;;;5034634;28;20501;-81
2021/12/01 10:08:31;;;;;;;113.90;103.00;;;9.80;97.70;;;;;;5051377;28;20133;-81
2021/12/01 10:10:59;;;;;;;112.78;101.65;;;9.70;97.80;;;;;;5051527;28;20895;-81
2021/12/01 10:13:29;;;;;;;108.95;98.22;;;9.70;97.90;;;;;;5052844;28;20050;-81
2021/12/01 10:15:58;;;;;;;109.57;98.68;;;9.70;97.90;;;;;;5050903;28;20053;-81
2021/12/01 10:18:26;;;;;;;110.45;99.50;;;9.70;97.80;;;;;;5071489;28;20048;-81
2021/12/01 10:21:02;;;;;;;111.22;100.07;;;9.70;97.70;;;;;;5071403;28;20064;-80
2021/12/01 10:23:30;;;;;;;109.63;98.47;;;9.70;97.70;;;;;;5074188;28;20498;-81
2021/12/01 10:26:06;;;;;;;110.50;99.35;;;9.70;97.80;;;;;;5074654;28;21129;-81
2021/12/01 10:28:34;;;;;;;113.38;102.13;;;9.70;97.90;;;;;;5063260;28;20116;-79
2021/12/01 10:31:02;;;;;;;112.10;100.95;;;9.70;97.80;;;;;;5054299;28;20590;-81
2021/12/01 10:33:30;;;;;;;114.32;102.60;;;9.80;97.90;;;;;;5055491;28;20061;-81
2021/12/01 10:36:01;;;;;;;113.35;101.72;;;9.70;98.00;;;;;;5054507;28;20064;-81
2021/12/01 10:38:32;;;;;;;109.85;98.53;;;9.70;98.10;;;;;;5054837;28;20050;-81
2021/12/01 10:41:05;;;;;;;114.40;102.35;;;9.70;97.90;;;;;;5059815;28;20434;-87
2021/12/01 10:43:54;;;;;;;113.25;102.00;;;9.70;97.90;;;;;;5056691;28;20053;-86
2021/12/01 10:46:21;;;;;;;114.28;102.95;;;9.70;97.60;;;;;;5065479;28;20038;-85
2021/12/01 10:49:02;;;;;;;112.78;101.47;;;9.60;97.70;;;;;;5074651;28;20049;-84
2021/12/01 10:51:36;;;;;;;113.25;101.78;;;9.70;97.50;;;;;;5064781;28;20053;-84
2021/12/01 10:54:04;;;;;;;114.07;102.68;;;9.70;97.30;;;;;;5048854;28;20049;-87
2021/12/01 10:56:32;;;;;;;113.07;101.32;;;9.80;96.90;;;;;;5065187;28;20477;-85
2021/12/01 10:59:10;;;;;;;112.07;100.95;;;9.80;97.10;;;;;;5048592;28;20509;-86
2021/12/01 11:01:38;;;;;;;115.93;104.05;;;9.70;97.00;;;;;;5040922;28;20045;-86
2021/12/01 11:04:06;;;;;;;112.07;101.05;;;9.80;97.00;;;;;;5039586;28;20123;-88
2021/12/01 11:06:39;;;;;;;113.10;101.90;;;9.80;96.80;;;;;;5056279;28;20800;-87
2021/12/01 11:09:07;;;;;;;113.45;102.25;;;9.80;96.90;;;;;;5056380;28;20038;-88
2021/12/01 11:11:41;;;;;;;113.30;102.00;;;9.80;96.80;;;;;;5038750;28;20135;-85
2021/12/01 11:14:11;;;;;;;115.07;103.88;;;9.80;96.70;;;;;;5039249;28;20049;-87
2021/12/01 11:16:39;;;;;;;117.05;105.30;;;9.80;96.70;;;;;;5055203;28;20060;-84
2021/12/01 11:22:37;;;;;;;116.95;105.28;;;9.80;96.70;;;;;;4952950;27;24429;-81
2021/12/01 11:25:18;;;;;;;115.97;103.95;;;9.70;96.80;;;;;;5072745;28;20524;-80
2021/12/01 11:27:46;;;;;;;117.40;105.35;;;9.70;96.90;;;;;;5028140;27;20058;-79
2021/12/01 11:30:13;;;;;;;115.70;103.85;;;9.80;96.90;;;;;;5053702;28;20102;-79
2021/12/01 11:32:40;;;;;;;116.40;104.82;;;9.80;97.00;;;;;;5066273;28;20076;-82
2021/12/01 11:35:08;;;;;;;115.22;103.40;;;9.80;97.00;;;;;;5050384;28;20498;-82
2021/12/01 11:37:38;;;;;;;113.68;102.00;;;9.70;97.10;;;;;;5050331;28;20049;-85
2021/12/01 11:40:06;;;;;;;114.57;102.80;;;9.70;97.20;;;;;;5046726;28;20085;-84
2021/12/01 11:42:33;;;;;;;116.28;104.28;;;9.70;97.20;;;;;;5062990;28;20108;-83
2021/12/01 11:45:02;;;;;;;115.63;103.60;;;9.70;97.20;;;;;;5064032;28;20502;-84
2021/12/01 11:47:29;;;;;;;115.07;103.43;;;9.70;97.40;;;;;;5067318;28;20080;-80
2021/12/01 11:49:58;;;;;;;113.97;101.75;;;9.70;97.30;;;;;;5064961;28;20053;-84
2021/12/01 11:52:45;;;;;;;116.03;104.18;;;9.70;97.50;;;;;;5065464;28;20064;-85
2021/12/01 11:55:13;;;;;;;115.82;103.82;;;9.60;97.60;;;;;;5053045;28;20049;-84
2021/12/01 11:57:41;;;;;;;113.75;101.68;;;9.60;97.60;;;;;;5055319;28;20145;-82
2021/12/01 12:00:10;;;;;;;114.05;101.93;;;9.60;97.70;;;;;;5049038;28;20527;-82
2021/12/01 12:02:38;;;;;;;116.43;104.03;;;9.60;97.60;;;;;;5057766;28;20105;-83
2021/12/01 12:05:18;;;;;;;116.93;104.72;;;9.60;97.70;;;;;;5066518;28;20097;-82
2021/12/01 12:07:45;;;;;;;115.40;103.32;;;9.60;97.80;;;;;;5042162;28;20056;-76
2021/12/01 12:10:19;;;;;;;115.65;103.32;;;9.50;97.90;;;;;;5063012;28;20063;-75
2021/12/01 12:13:03;;;;;;;115.43;103.25;;;9.50;97.90;;;;;;5068403;28;20052;-81
2021/12/01 12:15:47;;;;;;;115.45;103.40;;;9.40;98.10;;;;;;5045870;28;20059;-80
2021/12/01 12:18:30;;;;;;;114.80;102.90;;;9.40;98.30;;;;;;5068104;28;20142;-76
2021/12/01 12:21:12;;;;;;;116.47;103.85;;;9.40;98.40;;;;;;5058124;28;20092;-79
2021/12/01 12:23:40;;;;;;;114.80;102.88;;;9.30;98.50;;;;;;5068346;28;20119;-78
2021/12/01 12:26:11;;;;;;;115.03;103.13;;;9.30;98.50;;;;;;5068839;28;20052;-78
2021/12/01 12:28:39;;;;;;;113.60;101.45;;;9.30;98.20;;;;;;5064577;28;20049;-78